Terminal Aerodrome Forecast
Issued by NWS

Home | Current Version | Previous Version | Text Only | Print | Product List | Glossary On
Versions: 1 2 3 4 5 6 7 8 9 10 11 12 13 14
000
FTUS41 KPHI 231100
TAFPNE
TAF
KPNE 231127Z 2312/2412 23008KT P6SM SCT040
      TEMPO 2400/2403 29013G27KT 4SM TSRA BKN035CB
     FM240300 25004KT P6SM BKN050
      TEMPO 2406/2410 5SM -SHRA BR=

USA.gov is the U.S. government's official web portal to all federal, state and local government web resources and services.